createdAt,value
2018-08-04T07:17:44.066Z,24.34
2018-08-04T07:18:44.025Z,25.66
2018-08-04T07:19:44.015Z,26.50
2018-08-04T07:20:44.003Z,27.04
2018-08-04T07:21:43.993Z,27.50
2018-08-04T07:22:43.981Z,27.89
2018-08-04T07:23:43.976Z,28.14
2018-08-04T07:24:43.960Z,28.37
2018-08-04T07:25:43.948Z,28.47
2018-08-04T07:26:43.937Z,28.59
2018-08-04T07:27:43.927Z,28.59
2018-08-04T07:28:43.914Z,28.72
2018-08-04T07:29:43.905Z,28.87
2018-08-04T07:30:43.894Z,29.02
2018-08-04T07:31:43.885Z,29.11
2018-08-04T07:32:43.873Z,29.14
2018-08-04T07:33:43.861Z,29.17
2018-08-04T07:34:43.851Z,29.26
2018-08-04T07:35:43.839Z,29.30
2018-08-04T07:36:43.828Z,29.21
2018-08-04T07:37:43.821Z,29.45
2018-08-04T07:38:43.807Z,29.57
2018-08-04T07:39:43.796Z,29.46
2018-08-04T07:40:43.785Z,29.52
2018-08-04T07:41:43.773Z,29.64
2018-08-04T07:42:43.761Z,29.79
2018-08-04T07:43:43.751Z,29.94
2018-08-04T07:44:43.739Z,29.92
2018-08-04T07:45:43.729Z,30.05
2018-08-04T07:46:43.717Z,30.16
2018-08-04T07:47:43.707Z,30.21
2018-08-04T07:48:43.695Z,30.20
2018-08-04T07:49:43.685Z,30.24
2018-08-04T07:50:43.674Z,30.39
2018-08-04T07:51:43.663Z,30.26
2018-08-04T07:52:43.650Z,30.21
2018-08-04T07:53:43.638Z,30.31
2018-08-04T07:54:43.629Z,30.43
2018-08-04T07:55:43.866Z,30.54
2018-08-04T07:56:43.609Z,30.40
2018-08-04T07:57:43.595Z,30.48
2018-08-04T07:58:43.583Z,30.43
2018-08-04T07:59:43.574Z,30.57
2018-08-04T08:00:43.575Z,30.55
2018-08-04T08:01:43.550Z,30.62
2018-08-04T08:02:43.539Z,30.70
2018-08-04T08:03:43.535Z,30.84
2018-08-04T08:04:43.519Z,31.01
2018-08-04T08:05:43.507Z,31.06
2018-08-04T08:06:43.496Z,31.10
2018-08-04T08:07:43.490Z,31.01
2018-08-04T08:08:43.472Z,31.20
2018-08-04T08:09:43.462Z,31.14
2018-08-04T08:10:43.562Z,31.26
2018-08-04T08:11:43.441Z,31.36
2018-08-04T08:12:43.428Z,31.30
2018-08-04T08:13:43.421Z,31.37
2018-08-04T08:14:43.407Z,31.29
2018-08-04T08:15:43.398Z,31.47
2018-08-04T08:16:43.386Z,31.82
2018-08-04T08:17:43.373Z,32.03
2018-08-04T08:18:43.386Z,32.25
2018-08-04T08:19:43.352Z,32.36
2018-08-04T08:20:43.341Z,32.56
2018-08-04T08:21:43.331Z,32.72
2018-08-04T08:22:43.319Z,32.38
2018-08-04T08:23:43.308Z,32.45
2018-08-04T08:24:43.301Z,32.67
2018-08-04T08:25:43.288Z,32.86
2018-08-04T08:26:43.277Z,32.83
2018-08-04T08:27:43.266Z,32.85
2018-08-04T08:28:43.253Z,33.15
2018-08-04T08:29:43.244Z,33.49
2018-08-04T08:30:43.233Z,33.62
2018-08-04T08:31:43.222Z,33.81
2018-08-04T08:32:43.232Z,34.13
2018-08-04T08:33:43.203Z,34.32
2018-08-04T08:34:43.197Z,34.26
2018-08-04T08:35:43.181Z,34.80
2018-08-04T08:36:43.169Z,35.22
2018-08-04T08:37:43.158Z,35.53
2018-08-04T08:38:43.147Z,35.90
2018-08-04T08:39:43.135Z,36.01
2018-08-04T08:40:43.125Z,35.96
2018-08-04T08:41:43.115Z,35.93
2018-08-04T08:42:43.106Z,36.12
2018-08-04T08:43:43.094Z,36.25
2018-08-04T08:44:43.082Z,36.42
2018-08-04T08:45:43.071Z,36.62
2018-08-04T08:46:43.063Z,36.64
2018-08-04T08:47:43.048Z,36.44
2018-08-04T08:48:43.039Z,36.62
2018-08-04T08:49:43.029Z,37.07
2018-08-04T08:50:43.019Z,37.19
2018-08-04T08:51:43.007Z,37.50
2018-08-04T08:52:42.996Z,37.67
2018-08-04T08:53:43.128Z,37.66
2018-08-04T08:54:42.976Z,37.63
2018-08-04T08:55:42.965Z,37.79
2018-08-04T08:56:42.954Z,38.11
2018-08-04T08:57:42.948Z,38.63
2018-08-04T08:58:42.932Z,38.69
2018-08-04T08:59:42.932Z,38.54
2018-08-04T09:00:42.915Z,38.50
2018-08-04T09:01:42.902Z,38.15
2018-08-04T09:02:42.888Z,37.94
2018-08-04T09:03:42.882Z,37.41
2018-08-04T09:04:42.868Z,36.85
2018-08-04T09:05:42.858Z,37.07
2018-08-04T09:06:42.858Z,36.69
2018-08-04T09:07:42.836Z,36.82
2018-08-04T09:08:42.880Z,36.65
2018-08-04T09:09:42.813Z,36.75
2018-08-04T09:10:42.805Z,36.65
2018-08-04T09:11:42.792Z,35.68
2018-08-04T09:12:42.781Z,35.24
2018-08-04T09:13:42.774Z,34.88
2018-08-04T09:14:42.759Z,34.72
2018-08-04T09:15:42.821Z,34.75
2018-08-04T09:16:42.739Z,35.00
2018-08-04T09:17:42.729Z,34.38
2018-08-04T09:18:42.717Z,34.72
2018-08-04T09:19:42.731Z,34.35
2018-08-04T09:20:42.695Z,34.60
2018-08-04T09:21:42.686Z,34.92
2018-08-04T09:22:42.675Z,34.96
2018-08-04T09:23:42.666Z,35.31
2018-08-04T09:24:42.654Z,35.24
2018-08-04T09:25:42.644Z,35.03
2018-08-04T09:26:42.633Z,34.81
2018-08-04T09:27:42.621Z,34.96
2018-08-04T09:28:42.615Z,35.22
2018-08-04T09:29:42.602Z,35.34
2018-08-04T09:30:42.593Z,35.21
2018-08-04T09:31:42.580Z,35.50
2018-08-04T09:32:42.570Z,35.11
2018-08-04T09:33:42.557Z,35.24
2018-08-04T09:34:42.546Z,35.24
2018-08-04T09:35:42.536Z,35.29
2018-08-04T09:36:42.527Z,35.12
2018-08-04T09:37:42.538Z,34.84
2018-08-04T09:38:42.504Z,34.29
2018-08-04T09:39:42.494Z,34.31
2018-08-04T09:40:42.487Z,34.63
2018-08-04T09:41:42.471Z,34.77
2018-08-04T09:42:42.461Z,34.43
2018-08-04T09:43:42.450Z,34.48
2018-08-04T09:44:42.499Z,34.50
2018-08-04T09:45:42.429Z,34.82
2018-08-04T09:46:42.422Z,34.92
2018-08-04T09:47:42.408Z,34.70
2018-08-04T09:48:42.397Z,34.74
2018-08-04T09:49:42.386Z,34.85
2018-08-04T09:50:42.378Z,34.99
2018-08-04T09:51:42.366Z,35.54
2018-08-04T09:52:42.354Z,35.53
2018-08-04T09:53:42.344Z,35.21
2018-08-04T09:54:42.334Z,35.09
2018-08-04T09:55:42.343Z,34.69
2018-08-04T09:56:42.312Z,34.58
2018-08-04T09:57:42.307Z,34.44
2018-08-04T09:58:42.290Z,34.47
2018-08-04T09:59:42.306Z,34.31
2018-08-04T10:00:42.281Z,34.25
2018-08-04T10:01:42.268Z,34.28
2018-08-04T10:02:42.248Z,34.43
2018-08-04T10:03:42.238Z,34.41
2018-08-04T10:04:42.227Z,34.24
2018-08-04T10:05:42.216Z,34.32
2018-08-04T10:06:42.205Z,34.22
2018-08-04T10:07:42.196Z,33.93
2018-08-04T10:08:42.183Z,33.56
2018-08-04T10:09:42.174Z,33.54
2018-08-04T10:10:42.165Z,33.49
2018-08-04T10:11:42.152Z,33.65
2018-08-04T10:12:42.141Z,33.93
2018-08-04T10:13:42.130Z,34.02
2018-08-04T10:14:42.119Z,34.02
2018-08-04T10:15:42.113Z,33.76
2018-08-04T10:16:42.105Z,33.84
2018-08-04T10:17:42.085Z,33.59
2018-08-04T10:18:42.078Z,33.53
2018-08-04T10:19:42.091Z,33.75
2018-08-04T10:20:42.055Z,33.53
2018-08-04T10:21:42.044Z,33.13
2018-08-04T10:22:42.034Z,33.19
2018-08-04T10:23:42.028Z,33.12
2018-08-04T10:24:42.011Z,33.53
2018-08-04T10:25:42.002Z,33.76
2018-08-04T10:26:41.989Z,33.71
2018-08-04T10:27:41.980Z,33.71
2018-08-04T10:28:41.968Z,34.04
2018-08-04T10:29:41.958Z,33.78
2018-08-04T10:30:41.950Z,33.68
2018-08-04T10:31:41.935Z,33.65
2018-08-04T10:32:42.056Z,33.87
2018-08-04T10:33:41.916Z,34.13
2018-08-04T10:34:41.904Z,34.46
2018-08-04T10:35:41.901Z,34.90
2018-08-04T10:36:41.880Z,34.99
2018-08-04T10:37:41.875Z,34.72
2018-08-04T10:38:41.913Z,34.60
2018-08-04T10:39:41.848Z,34.80
2018-08-04T10:40:41.838Z,35.09
2018-08-04T10:41:41.826Z,35.17
2018-08-04T10:42:41.816Z,35.17
2018-08-04T10:43:41.806Z,35.12
2018-08-04T10:44:41.797Z,34.93
2018-08-04T10:45:41.785Z,34.96
2018-08-04T10:46:41.773Z,34.80
2018-08-04T10:47:41.765Z,34.87
2018-08-04T10:48:41.753Z,34.78
2018-08-04T10:49:41.741Z,34.66
2018-08-04T10:50:41.731Z,34.77
2018-08-04T10:51:41.720Z,35.00
2018-08-04T10:52:41.710Z,34.56
2018-08-04T10:53:41.698Z,34.33
2018-08-04T10:54:41.689Z,34.02
2018-08-04T10:55:41.680Z,33.97
2018-08-04T10:56:41.669Z,34.06
2018-08-04T10:57:41.655Z,34.16
2018-08-04T10:58:41.645Z,33.81
2018-08-04T10:59:41.636Z,33.56
2018-08-04T11:00:41.647Z,33.53
2018-08-04T11:01:41.615Z,33.49
2018-08-04T11:02:41.603Z,33.62
2018-08-04T11:03:41.593Z,33.57
2018-08-04T11:04:41.580Z,33.47
2018-08-04T11:05:41.570Z,33.47
2018-08-04T11:06:41.560Z,33.44
2018-08-04T11:07:41.552Z,33.16
2018-08-04T11:08:41.538Z,33.08
2018-08-04T11:09:41.527Z,32.78
2018-08-04T11:10:41.516Z,32.72
2018-08-04T11:11:41.511Z,33.01
2018-08-04T11:12:41.536Z,33.03
2018-08-04T11:13:41.488Z,33.09
2018-08-04T11:14:41.473Z,32.95
2018-08-04T11:15:41.464Z,32.76
2018-08-04T11:16:41.450Z,32.67
2018-08-04T11:17:41.441Z,32.66
2018-08-04T11:18:41.430Z,32.81
2018-08-04T11:19:41.420Z,32.83
2018-08-04T11:20:41.432Z,32.68
2018-08-04T11:21:41.397Z,32.71
2018-08-04T11:22:41.386Z,32.75
2018-08-04T11:23:41.375Z,32.73
2018-08-04T11:24:41.365Z,32.95
2018-08-04T11:25:41.355Z,33.00
2018-08-04T11:26:41.342Z,33.09
2018-08-04T11:27:41.332Z,33.23
2018-08-04T11:28:41.322Z,33.09
2018-08-04T11:29:41.310Z,33.28
2018-08-04T11:30:41.305Z,33.32
2018-08-04T11:31:41.288Z,33.25
2018-08-04T11:32:41.278Z,33.12
2018-08-04T11:33:41.267Z,33.10
2018-08-04T11:34:41.258Z,33.22
2018-08-04T11:35:41.245Z,33.15
2018-08-04T11:36:41.236Z,33.08
2018-08-04T11:37:41.275Z,33.04
2018-08-04T11:38:41.212Z,33.09
2018-08-04T11:39:41.204Z,33.16
2018-08-04T11:40:41.196Z,33.15
2018-08-04T11:41:41.179Z,33.08
2018-08-04T11:42:41.173Z,32.94
2018-08-04T11:43:41.159Z,32.91
2018-08-04T11:44:41.148Z,32.95
2018-08-04T11:45:41.141Z,32.91
2018-08-04T11:46:41.129Z,33.03
2018-08-04T11:47:41.116Z,33.08
2018-08-04T11:48:41.103Z,33.22
2018-08-04T11:49:41.099Z,33.30
2018-08-04T11:50:41.083Z,33.13
2018-08-04T11:51:41.164Z,33.10
2018-08-04T11:52:41.061Z,33.15
2018-08-04T11:53:41.053Z,33.32
2018-08-04T11:54:41.040Z,33.31
2018-08-04T11:55:41.030Z,33.20
2018-08-04T11:56:41.019Z,33.13
2018-08-04T11:57:41.012Z,33.19
2018-08-04T11:58:40.995Z,33.22
2018-08-04T11:59:40.985Z,33.22
2018-08-04T12:00:40.980Z,33.38
2018-08-04T12:01:40.964Z,33.17
2018-08-04T12:02:40.956Z,33.17
2018-08-04T12:03:40.942Z,33.20
2018-08-04T12:04:40.930Z,33.34
2018-08-04T12:05:40.923Z,33.39
2018-08-04T12:06:40.916Z,33.35
2018-08-04T12:07:40.899Z,33.39
2018-08-04T12:08:40.889Z,33.37
2018-08-04T12:09:40.878Z,33.52
2018-08-04T12:10:40.870Z,33.47
2018-08-04T12:11:40.855Z,33.60
2018-08-04T12:12:40.844Z,33.49
2018-08-04T12:13:40.834Z,33.60
2018-08-04T12:14:40.821Z,33.78
2018-08-04T12:15:40.812Z,33.71
2018-08-04T12:16:40.801Z,33.78
2018-08-04T12:17:40.791Z,33.81
2018-08-04T12:18:40.780Z,33.74
2018-08-04T12:19:40.769Z,33.81
2018-08-04T12:20:40.761Z,33.62
2018-08-04T12:21:40.775Z,33.57
2018-08-04T12:22:40.743Z,33.57
2018-08-04T12:23:40.725Z,33.52
2018-08-04T12:24:40.715Z,33.59
2018-08-04T12:25:40.789Z,33.71
2018-08-04T12:26:40.693Z,33.62
2018-08-04T12:27:40.680Z,33.64
2018-08-04T12:28:40.671Z,33.83
2018-08-04T12:29:40.661Z,33.90
2018-08-04T12:30:40.650Z,34.03
2018-08-04T12:31:40.641Z,34.14
2018-08-04T12:32:40.630Z,34.10
2018-08-04T12:33:40.619Z,34.18
2018-08-04T12:34:40.607Z,34.18
2018-08-04T12:35:40.598Z,34.16
2018-08-04T12:36:40.585Z,34.14
2018-08-04T12:37:40.577Z,34.03
2018-08-04T12:38:40.566Z,34.09
2018-08-04T12:39:40.554Z,34.00
2018-08-04T12:40:40.543Z,34.04
2018-08-04T12:41:40.537Z,33.97
2018-08-04T12:42:40.522Z,33.90
2018-08-04T12:43:40.530Z,34.00
2018-08-04T12:44:40.501Z,33.83
2018-08-04T12:45:40.490Z,33.75
2018-08-04T12:46:40.479Z,33.81
2018-08-04T12:47:40.469Z,33.91
2018-08-04T12:48:40.459Z,34.03
2018-08-04T12:49:40.448Z,34.09
2018-08-04T12:50:40.440Z,34.28
2018-08-04T12:51:40.428Z,34.33
2018-08-04T12:52:40.413Z,34.33
2018-08-04T12:53:40.404Z,34.41
2018-08-04T12:54:40.399Z,34.43
2018-08-04T12:55:40.382Z,34.51
2018-08-04T12:56:40.376Z,34.63
2018-08-04T12:57:40.362Z,34.66
2018-08-04T12:58:40.351Z,34.72
2018-08-04T12:59:40.349Z,34.69
2018-08-04T13:00:40.333Z,34.59
2018-08-04T13:01:40.345Z,34.63
2018-08-04T13:02:40.349Z,34.72
2018-08-04T13:03:40.298Z,34.80
2018-08-04T13:04:40.287Z,34.84
2018-08-04T13:05:40.277Z,34.78
2018-08-04T13:06:40.266Z,34.63
2018-08-04T13:07:40.257Z,34.55
2018-08-04T13:08:40.271Z,34.56
2018-08-04T13:09:40.232Z,34.62
2018-08-04T13:10:40.223Z,34.46
2018-08-04T13:11:40.216Z,34.47
2018-08-04T13:12:40.201Z,34.28
2018-08-04T13:13:40.190Z,34.02
2018-08-04T13:14:40.179Z,34.06
2018-08-04T13:15:40.169Z,34.25
2018-08-04T13:16:40.157Z,34.03
2018-08-04T13:17:40.147Z,33.69
2018-08-04T13:18:40.137Z,33.68
2018-08-04T13:19:40.126Z,33.69
2018-08-04T13:20:40.114Z,33.78
2018-08-04T13:21:40.129Z,33.84
2018-08-04T13:22:40.096Z,33.98
2018-08-04T13:23:40.084Z,34.06
2018-08-04T13:24:40.074Z,34.18
2018-08-04T13:25:40.061Z,34.13
2018-08-04T13:26:40.051Z,33.80
2018-08-04T13:27:40.045Z,33.64
2018-08-04T13:28:40.030Z,33.60
2018-08-04T13:29:40.083Z,33.69
2018-08-04T13:30:40.008Z,33.68
2018-08-04T13:31:39.997Z,33.91
2018-08-04T13:32:39.986Z,34.00
2018-08-04T13:33:39.977Z,33.80
2018-08-04T13:34:39.965Z,33.72
2018-08-04T13:35:39.954Z,33.88
2018-08-04T13:36:39.945Z,34.04
2018-08-04T13:37:39.953Z,33.94
2018-08-04T13:38:39.945Z,33.80
2018-08-04T13:39:39.914Z,33.86
2018-08-04T13:40:39.902Z,33.75
2018-08-04T13:41:39.892Z,33.83
2018-08-04T13:42:39.883Z,33.69
2018-08-04T13:43:39.892Z,33.65
2018-08-04T13:44:39.860Z,33.76
2018-08-04T13:45:39.849Z,33.68
2018-08-04T13:46:39.861Z,33.66
2018-08-04T13:47:39.828Z,33.60
2018-08-04T13:48:39.816Z,33.35
2018-08-04T13:49:39.807Z,33.52
2018-08-04T13:50:39.796Z,33.53
2018-08-04T13:51:39.786Z,33.44
2018-08-04T13:52:39.773Z,33.44
2018-08-04T13:53:39.762Z,33.57
2018-08-04T13:54:39.756Z,33.65
2018-08-04T13:55:39.741Z,33.60
2018-08-04T13:56:39.731Z,33.66
2018-08-04T13:57:39.718Z,33.57
2018-08-04T13:58:39.712Z,33.81
2018-08-04T13:59:39.733Z,34.00
2018-08-04T14:00:39.690Z,33.98
2018-08-04T14:01:39.677Z,34.02
2018-08-04T14:02:39.665Z,34.09
2018-08-04T14:03:39.655Z,34.03
2018-08-04T14:04:39.642Z,33.80
2018-08-04T14:05:39.634Z,33.71
2018-08-04T14:06:39.627Z,33.71
2018-08-04T14:07:39.611Z,33.76
2018-08-04T14:08:39.602Z,33.86
2018-08-04T14:09:39.632Z,33.88
2018-08-04T14:10:39.581Z,33.74
2018-08-04T14:11:39.569Z,33.80
2018-08-04T14:12:39.562Z,33.68
2018-08-04T14:13:39.548Z,33.62
2018-08-04T14:14:39.536Z,33.81
2018-08-04T14:15:39.525Z,33.78
2018-08-04T14:16:39.514Z,33.62
2018-08-04T14:17:39.504Z,33.52
2018-08-04T14:18:39.494Z,33.59
2018-08-04T14:19:39.487Z,33.75
2018-08-04T14:20:39.473Z,33.76
2018-08-04T14:21:39.462Z,33.72
2018-08-04T14:22:39.475Z,33.71
2018-08-04T14:23:39.442Z,33.57
2018-08-04T14:24:39.429Z,33.46
2018-08-04T14:25:39.420Z,33.37
2018-08-04T14:26:39.406Z,33.25
2018-08-04T14:27:39.398Z,33.28
2018-08-04T14:28:39.435Z,33.32
2018-08-04T14:29:39.374Z,33.25
2018-08-04T14:30:39.377Z,33.20
2018-08-04T14:31:39.354Z,33.12
2018-08-04T14:32:39.343Z,33.23
2018-08-04T14:33:39.330Z,33.35
2018-08-04T14:34:39.322Z,33.32
2018-08-04T14:35:39.310Z,33.31
2018-08-04T14:36:39.299Z,33.32
2018-08-04T14:37:39.290Z,33.19
2018-08-04T14:38:39.284Z,33.32
2018-08-04T14:39:39.268Z,33.17
2018-08-04T14:40:39.258Z,33.17
2018-08-04T14:41:39.245Z,33.23
2018-08-04T14:42:39.243Z,33.31
2018-08-04T14:43:39.223Z,33.34
2018-08-04T14:44:39.216Z,33.31
2018-08-04T14:45:39.202Z,33.22
2018-08-04T14:46:39.198Z,33.34
2018-08-04T14:47:39.180Z,33.27
2018-08-04T14:48:39.173Z,33.15
2018-08-04T14:49:39.228Z,33.31
2018-08-04T14:50:39.148Z,33.08
2018-08-04T14:51:39.135Z,33.09
2018-08-04T14:52:39.126Z,33.03
2018-08-04T14:53:39.266Z,33.01
2018-08-04T14:54:39.104Z,33.01
2018-08-04T14:55:39.095Z,33.03
2018-08-04T14:56:39.083Z,32.91
2018-08-04T14:57:39.073Z,32.79
2018-08-04T14:58:39.062Z,32.88
2018-08-04T14:59:39.058Z,32.75
2018-08-04T15:00:39.043Z,32.78
2018-08-04T15:01:39.028Z,32.95
2018-08-04T15:02:39.018Z,33.04
2018-08-04T15:03:39.010Z,32.97
2018-08-04T15:04:39.027Z,32.97
2018-08-04T15:05:38.985Z,32.93
2018-08-04T15:06:38.977Z,32.93
2018-08-04T15:07:38.962Z,33.03
2018-08-04T15:08:38.955Z,33.12
2018-08-04T15:09:38.942Z,33.17
2018-08-04T15:10:38.930Z,33.01
2018-08-04T15:11:38.919Z,32.91
2018-08-04T15:12:38.909Z,32.95
2018-08-04T15:13:38.898Z,32.91
2018-08-04T15:14:38.888Z,32.94
2018-08-04T15:15:38.894Z,32.85
2018-08-04T15:16:38.866Z,32.90
2018-08-04T15:17:38.857Z,32.93
2018-08-04T15:18:38.845Z,33.10
2018-08-04T15:19:38.833Z,33.10
2018-08-04T15:20:38.824Z,32.86
2018-08-04T15:21:38.848Z,32.88
2018-08-04T15:22:38.805Z,32.97
2018-08-04T15:23:38.817Z,32.94
2018-08-04T15:24:38.780Z,32.94
2018-08-04T15:25:38.769Z,32.85
2018-08-04T15:26:38.758Z,32.88
2018-08-04T15:27:38.756Z,32.75
2018-08-04T15:28:38.737Z,32.93
2018-08-04T15:29:38.729Z,33.03
2018-08-04T15:30:38.715Z,33.13
2018-08-04T15:31:38.705Z,33.09
2018-08-04T15:32:38.693Z,32.91
2018-08-04T15:33:38.683Z,32.83
2018-08-04T15:34:38.673Z,32.86
2018-08-04T15:35:38.660Z,32.79
2018-08-04T15:36:38.649Z,32.86
2018-08-04T15:37:38.640Z,32.86
2018-08-04T15:38:38.629Z,32.90
2018-08-04T15:39:38.620Z,33.04
2018-08-04T15:40:38.605Z,33.13
2018-08-04T15:41:38.594Z,33.10
2018-08-04T15:42:38.586Z,33.09
2018-08-04T15:43:38.575Z,33.03
2018-08-04T15:44:38.564Z,33.08
2018-08-04T15:45:38.553Z,32.95
2018-08-04T15:46:38.791Z,32.82
2018-08-04T15:47:38.530Z,32.90
2018-08-04T15:48:38.521Z,32.86
2018-08-04T15:49:38.510Z,32.83
2018-08-04T15:50:38.498Z,32.68
2018-08-04T15:51:38.488Z,32.75
2018-08-04T15:52:38.477Z,32.79
2018-08-04T15:53:38.466Z,32.91
2018-08-04T15:54:38.456Z,32.91
2018-08-04T15:55:38.445Z,32.93
2018-08-04T15:56:38.433Z,32.91
2018-08-04T15:57:38.423Z,32.75
2018-08-04T15:58:38.413Z,32.67
2018-08-04T15:59:38.401Z,32.66
2018-08-04T16:00:38.972Z,32.52
2018-08-04T16:01:38.380Z,32.53
2018-08-04T16:02:38.369Z,32.45
2018-08-04T16:03:38.357Z,32.30
2018-08-04T16:04:38.346Z,32.36
2018-08-04T16:05:38.335Z,32.38
2018-08-04T16:06:38.326Z,32.37
2018-08-04T16:07:38.321Z,32.26
2018-08-04T16:08:38.305Z,32.25
2018-08-04T16:09:38.295Z,32.33
2018-08-04T16:10:38.284Z,32.30
2018-08-04T16:11:38.271Z,32.22
2018-08-04T16:12:38.261Z,32.23
2018-08-04T16:13:38.247Z,32.34
2018-08-04T16:14:38.242Z,32.36
2018-08-04T16:15:38.228Z,32.25
2018-08-04T16:16:38.236Z,32.25
2018-08-04T16:17:38.205Z,32.22
2018-08-04T16:18:38.195Z,32.25
2018-08-04T16:19:38.184Z,32.22
2018-08-04T16:20:38.173Z,32.22
2018-08-04T16:21:38.167Z,32.23
2018-08-04T16:22:38.198Z,32.14
2018-08-04T16:23:38.169Z,32.16
2018-08-04T16:24:38.129Z,32.03
2018-08-04T16:25:38.120Z,32.06
2018-08-04T16:26:38.113Z,31.97
2018-08-04T16:27:38.098Z,31.96
2018-08-04T16:28:38.091Z,31.96
2018-08-04T16:29:38.076Z,31.86
2018-08-04T16:30:38.066Z,31.96
2018-08-04T16:31:38.055Z,31.96
2018-08-04T16:32:38.052Z,31.94
2018-08-04T16:33:38.033Z,31.88
2018-08-04T16:34:38.022Z,31.85
2018-08-04T16:35:38.013Z,31.73
2018-08-04T16:36:38.000Z,31.78
2018-08-04T16:37:37.991Z,31.72
2018-08-04T16:38:37.978Z,31.73
2018-08-04T16:39:37.967Z,31.69
2018-08-04T16:40:37.957Z,31.70
2018-08-04T16:41:37.970Z,31.77
2018-08-04T16:42:37.934Z,31.73
2018-08-04T16:43:37.925Z,31.70
2018-08-04T16:44:37.914Z,31.64
2018-08-04T16:45:37.904Z,31.63
2018-08-04T16:46:37.892Z,31.69
2018-08-04T16:47:37.882Z,31.64
2018-08-04T16:48:37.869Z,31.62
2018-08-04T16:49:37.860Z,31.64
2018-08-04T16:50:37.849Z,31.63
2018-08-04T16:51:37.837Z,31.59
2018-08-04T16:52:37.831Z,31.60
2018-08-04T16:53:37.815Z,31.50
2018-08-04T16:54:37.805Z,31.42
2018-08-04T16:55:37.794Z,31.32
2018-08-04T16:56:37.782Z,31.39
2018-08-04T16:57:37.772Z,31.47
2018-08-04T16:58:37.764Z,31.39
2018-08-04T16:59:37.751Z,31.45
2018-08-04T17:00:37.870Z,31.32
2018-08-04T17:01:37.730Z,31.30
2018-08-04T17:02:37.720Z,31.33
2018-08-04T17:03:37.708Z,31.33
2018-08-04T17:04:37.697Z,31.29
2018-08-04T17:05:37.690Z,31.30
2018-08-04T17:06:37.734Z,31.20
2018-08-04T17:07:37.664Z,31.17
2018-08-04T17:08:37.654Z,31.07
2018-08-04T17:09:37.645Z,31.06
2018-08-04T17:10:37.634Z,31.13
2018-08-04T17:11:37.620Z,31.04
2018-08-04T17:12:37.613Z,30.99
2018-08-04T17:13:37.599Z,31.01
2018-08-04T17:14:37.589Z,31.03
2018-08-04T17:15:37.578Z,31.03
2018-08-04T17:16:37.569Z,30.99
2018-08-04T17:17:37.556Z,30.91
2018-08-04T17:18:37.546Z,30.87
2018-08-04T17:19:37.537Z,30.84
2018-08-04T17:20:37.524Z,30.72
2018-08-04T17:21:37.517Z,30.62
2018-08-04T17:22:37.503Z,30.62
2018-08-04T17:23:37.491Z,30.60
2018-08-04T17:24:37.506Z,30.51
2018-08-04T17:25:37.471Z,30.45
2018-08-04T17:26:37.459Z,30.43
2018-08-04T17:27:37.448Z,30.35
2018-08-04T17:28:37.461Z,30.32
2018-08-04T17:29:37.427Z,30.24
2018-08-04T17:30:37.418Z,30.18
2018-08-04T17:31:37.405Z,30.14
2018-08-04T17:32:37.642Z,30.11
2018-08-04T17:33:37.386Z,30.08
2018-08-04T17:34:37.372Z,30.01
2018-08-04T17:35:37.359Z,29.98
2018-08-04T17:36:37.348Z,29.87
2018-08-04T17:37:37.385Z,29.86
2018-08-04T17:38:37.328Z,29.77
2018-08-04T17:39:37.316Z,29.71
2018-08-04T17:40:37.304Z,29.71
2018-08-04T17:41:37.294Z,29.66
2018-08-04T17:42:37.282Z,29.68
2018-08-04T17:43:37.270Z,29.64
2018-08-04T17:44:37.296Z,29.61
2018-08-04T17:45:37.252Z,29.58
2018-08-04T17:46:37.236Z,29.54
2018-08-04T17:47:37.228Z,29.54
2018-08-04T17:48:37.218Z,29.49
2018-08-04T17:49:37.203Z,29.45
2018-08-04T17:50:37.194Z,29.46
2018-08-04T17:51:37.183Z,29.43
2018-08-04T17:52:37.178Z,29.46
2018-08-04T17:53:37.159Z,29.42
2018-08-04T17:54:37.148Z,29.38
2018-08-04T17:55:37.138Z,29.38
2018-08-04T17:56:37.129Z,29.34
2018-08-04T17:57:37.116Z,29.38
2018-08-04T17:58:37.116Z,29.33
2018-08-04T17:59:37.093Z,29.29
2018-08-04T18:00:37.081Z,29.30
2018-08-04T18:01:37.075Z,29.23
2018-08-04T18:02:37.311Z,29.21
2018-08-04T18:03:37.050Z,29.14
2018-08-04T18:04:37.039Z,29.09
2018-08-04T18:05:37.030Z,29.11
2018-08-04T18:06:37.017Z,29.11
2018-08-04T18:07:37.008Z,29.11
2018-08-04T18:08:37.001Z,29.08
2018-08-04T18:09:36.987Z,29.01
2018-08-04T18:10:36.975Z,28.97
2018-08-04T18:11:36.963Z,29.02
2018-08-04T18:12:36.953Z,28.96
2018-08-04T18:13:36.953Z,28.93
2018-08-04T18:14:36.933Z,28.89
2018-08-04T18:15:36.924Z,28.83
2018-08-04T18:16:36.912Z,28.78
2018-08-04T18:17:36.900Z,28.78
2018-08-04T18:18:36.888Z,28.74
2018-08-04T18:19:36.879Z,28.72
2018-08-04T18:20:36.867Z,28.64
2018-08-04T18:21:36.856Z,28.62
2018-08-04T18:22:36.846Z,28.60
2018-08-04T18:23:36.835Z,28.59
2018-08-04T18:24:36.828Z,28.56
2018-08-04T18:25:36.841Z,28.47
2018-08-04T18:26:36.804Z,28.47
2018-08-04T18:27:36.792Z,28.43
2018-08-04T18:28:36.781Z,28.35
2018-08-04T18:29:36.863Z,28.35
2018-08-04T18:30:36.760Z,28.28
2018-08-04T18:31:36.749Z,28.28
2018-08-04T18:32:36.738Z,28.28
2018-08-04T18:33:36.726Z,28.21
2018-08-04T18:34:36.735Z,28.17
2018-08-04T18:35:36.707Z,28.08
2018-08-04T18:36:36.698Z,28.08
2018-08-04T18:37:36.685Z,28.02
2018-08-04T18:38:36.827Z,27.94
2018-08-04T18:39:36.664Z,27.87
2018-08-04T18:40:36.652Z,27.87
2018-08-04T18:41:36.641Z,27.80
2018-08-04T18:42:36.634Z,27.77
2018-08-04T18:43:36.624Z,27.70
2018-08-04T18:44:36.660Z,27.65
2018-08-04T18:45:36.597Z,27.62
2018-08-04T18:46:36.586Z,27.65
2018-08-04T18:47:36.575Z,27.57
2018-08-04T18:48:36.566Z,27.52
2018-08-04T18:49:36.554Z,27.40
2018-08-04T18:50:36.542Z,27.33
2018-08-04T18:51:36.531Z,27.28
2018-08-04T18:52:36.519Z,27.23
2018-08-04T18:53:36.510Z,27.18
2018-08-04T18:54:36.498Z,27.08
2018-08-04T18:55:36.486Z,27.01
2018-08-04T18:56:36.475Z,26.93
2018-08-04T18:57:36.466Z,26.91
2018-08-04T18:58:36.454Z,26.86
2018-08-04T18:59:36.443Z,26.77
2018-08-04T19:00:36.437Z,26.63
2018-08-04T19:01:36.422Z,26.59
2018-08-04T19:02:36.410Z,26.60
2018-08-04T19:03:36.398Z,26.60
2018-08-04T19:04:36.389Z,26.51
2018-08-04T19:05:36.382Z,26.50
2018-08-04T19:06:36.370Z,26.41
2018-08-04T19:07:36.356Z,26.35
2018-08-04T19:08:36.346Z,26.32
2018-08-04T19:09:36.332Z,26.25
2018-08-04T19:10:36.322Z,26.21
2018-08-04T19:11:36.311Z,26.17
2018-08-04T19:12:36.300Z,26.11
2018-08-04T19:13:36.289Z,26.04
2018-08-04T19:14:36.277Z,25.98
2018-08-04T19:15:36.267Z,25.93
2018-08-04T19:16:36.255Z,26.01
2018-08-04T19:17:36.245Z,25.92
2018-08-04T19:18:36.233Z,25.92
2018-08-04T19:19:36.223Z,25.89
2018-08-04T19:20:36.212Z,25.80
2018-08-04T19:21:36.204Z,25.74
2018-08-04T19:22:36.189Z,25.68
2018-08-04T19:23:36.179Z,25.70
2018-08-04T19:24:36.174Z,25.67
2018-08-04T19:25:36.181Z,25.61
2018-08-04T19:26:36.144Z,25.55
2018-08-04T19:27:36.135Z,25.54
2018-08-04T19:28:36.186Z,25.59
2018-08-04T19:29:36.113Z,25.52
2018-08-04T19:30:36.102Z,25.54
2018-08-04T19:31:36.089Z,25.44
2018-08-04T19:32:36.081Z,25.40
2018-08-04T19:33:36.067Z,25.42
2018-08-04T19:34:36.056Z,25.35
2018-08-04T19:35:36.045Z,25.24
2018-08-04T19:36:36.035Z,25.17
2018-08-04T19:37:36.025Z,25.08
2018-08-04T19:38:36.011Z,25.05
2018-08-04T19:39:36.002Z,25.02
2018-08-04T19:40:35.989Z,24.93
